sensor_id;sensor_type;location;lat;lon;timestamp;temperature;humidity
69436;SHT31;56625;54.322;18.582;2023-03-08T00:01:10;0.10;68.27
69436;SHT31;56625;54.322;18.582;2023-03-08T00:03:41;0.10;68.45
69436;SHT31;56625;54.322;18.582;2023-03-08T00:06:10;0.07;68.44
69436;SHT31;56625;54.322;18.582;2023-03-08T00:08:40;0.06;68.30
69436;SHT31;56625;54.322;18.582;2023-03-08T00:11:07;0.05;68.08
69436;SHT31;56625;54.322;18.582;2023-03-08T00:13:37;0.05;67.60
69436;SHT31;56625;54.322;18.582;2023-03-08T00:16:05;0.06;67.36
69436;SHT31;56625;54.322;18.582;2023-03-08T00:18:36;0.05;67.14
69436;SHT31;56625;54.322;18.582;2023-03-08T00:21:04;0.05;66.76
69436;SHT31;56625;54.322;18.582;2023-03-08T00:23:35;0.08;66.65
69436;SHT31;56625;54.322;18.582;2023-03-08T00:26:01;0.06;66.44
69436;SHT31;56625;54.322;18.582;2023-03-08T00:28:28;0.06;66.48
69436;SHT31;56625;54.322;18.582;2023-03-08T00:31:08;0.06;66.23
69436;SHT31;56625;54.322;18.582;2023-03-08T00:33:38;0.07;66.11
69436;SHT31;56625;54.322;18.582;2023-03-08T00:38:39;0.07;66.30
69436;SHT31;56625;54.322;18.582;2023-03-08T00:41:06;0.06;66.65
69436;SHT31;56625;54.322;18.582;2023-03-08T00:43:33;0.03;66.76
69436;SHT31;56625;54.322;18.582;2023-03-08T00:45:59;0.02;66.48
69436;SHT31;56625;54.322;18.582;2023-03-08T00:48:26;0.01;66.67
69436;SHT31;56625;54.322;18.582;2023-03-08T00:50:53;0.01;66.86
69436;SHT31;56625;54.322;18.582;2023-03-08T00:53:19;-0.00;66.81
69436;SHT31;56625;54.322;18.582;2023-03-08T00:55:56;-0.01;66.72
69436;SHT31;56625;54.322;18.582;2023-03-08T00:58:25;-0.01;66.78
69436;SHT31;56625;54.322;18.582;2023-03-08T01:00:55;-0.03;66.79
69436;SHT31;56625;54.322;18.582;2023-03-08T01:03:23;-0.05;66.73
69436;SHT31;56625;54.322;18.582;2023-03-08T01:05:51;-0.06;66.41
69436;SHT31;56625;54.322;18.582;2023-03-08T01:08:21;-0.07;66.44
69436;SHT31;56625;54.322;18.582;2023-03-08T01:10:50;-0.08;66.31
69436;SHT31;56625;54.322;18.582;2023-03-08T01:13:22;-0.10;65.92
69436;SHT31;56625;54.322;18.582;2023-03-08T01:15:50;-0.08;65.36
69436;SHT31;56625;54.322;18.582;2023-03-08T01:18:16;-0.07;65.35
69436;SHT31;56625;54.322;18.582;2023-03-08T01:20:43;-0.08;65.11
69436;SHT31;56625;54.322;18.582;2023-03-08T01:23:10;-0.07;64.89
69436;SHT31;56625;54.322;18.582;2023-03-08T01:25:36;-0.11;64.93
69436;SHT31;56625;54.322;18.582;2023-03-08T01:28:02;-0.12;64.71
69436;SHT31;56625;54.322;18.582;2023-03-08T01:30:29;-0.16;64.74
69436;SHT31;56625;54.322;18.582;2023-03-08T01:32:55;-0.18;64.57
69436;SHT31;56625;54.322;18.582;2023-03-08T01:35:22;-0.21;64.36
69436;SHT31;56625;54.322;18.582;2023-03-08T01:37:49;-0.21;64.01
69436;SHT31;56625;54.322;18.582;2023-03-08T01:40:20;-0.21;63.77
69436;SHT31;56625;54.322;18.582;2023-03-08T01:42:47;-0.23;63.67
69436;SHT31;56625;54.322;18.582;2023-03-08T01:48:33;-0.25;63.53
69436;SHT31;56625;54.322;18.582;2023-03-08T01:51:06;-0.28;63.61
69436;SHT31;56625;54.322;18.582;2023-03-08T01:53:37;-0.28;63.49
69436;SHT31;56625;54.322;18.582;2023-03-08T01:56:07;-0.29;63.02
69436;SHT31;56625;54.322;18.582;2023-03-08T01:58:39;-0.27;63.01
69436;SHT31;56625;54.322;18.582;2023-03-08T02:01:09;-0.28;62.89
69436;SHT31;56625;54.322;18.582;2023-03-08T02:03:36;-0.26;62.71
69436;SHT31;56625;54.322;18.582;2023-03-08T02:06:02;-0.25;62.44
69436;SHT31;56625;54.322;18.582;2023-03-08T02:08:30;-0.23;62.18
69436;SHT31;56625;54.322;18.582;2023-03-08T02:10:58;-0.21;61.89
69436;SHT31;56625;54.322;18.582;2023-03-08T02:13:26;-0.22;61.89
69436;SHT31;56625;54.322;18.582;2023-03-08T02:15:53;-0.23;61.71
69436;SHT31;56625;54.322;18.582;2023-03-08T02:18:22;-0.23;61.01
69436;SHT31;56625;54.322;18.582;2023-03-08T02:20:49;-0.24;60.82
69436;SHT31;56625;54.322;18.582;2023-03-08T02:23:16;-0.23;60.39
69436;SHT31;56625;54.322;18.582;2023-03-08T02:25:51;-0.22;59.84
69436;SHT31;56625;54.322;18.582;2023-03-08T02:28:24;-0.21;59.86
69436;SHT31;56625;54.322;18.582;2023-03-08T02:30:53;-0.20;59.78
69436;SHT31;56625;54.322;18.582;2023-03-08T02:33:21;-0.20;59.93
69436;SHT31;56625;54.322;18.582;2023-03-08T02:35:48;-0.21;59.77
69436;SHT31;56625;54.322;18.582;2023-03-08T02:38:16;-0.19;59.25
69436;SHT31;56625;54.322;18.582;2023-03-08T02:40:45;-0.17;59.38
69436;SHT31;56625;54.322;18.582;2023-03-08T02:43:13;-0.15;59.62
69436;SHT31;56625;54.322;18.582;2023-03-08T02:45:39;-0.14;60.32
69436;SHT31;56625;54.322;18.582;2023-03-08T02:48:06;-0.18;61.99
69436;SHT31;56625;54.322;18.582;2023-03-08T02:50:33;-0.24;64.07
69436;SHT31;56625;54.322;18.582;2023-03-08T02:53:02;-0.32;64.13
69436;SHT31;56625;54.322;18.582;2023-03-08T02:55:29;-0.35;63.78
69436;SHT31;56625;54.322;18.582;2023-03-08T02:57:56;-0.39;64.30
69436;SHT31;56625;54.322;18.582;2023-03-08T03:00:22;-0.41;62.53
69436;SHT31;56625;54.322;18.582;2023-03-08T03:02:49;-0.36;61.33
69436;SHT31;56625;54.322;18.582;2023-03-08T03:05:15;-0.32;60.89
69436;SHT31;56625;54.322;18.582;2023-03-08T03:07:42;-0.27;61.03
69436;SHT31;56625;54.322;18.582;2023-03-08T03:10:09;-0.26;60.78
69436;SHT31;56625;54.322;18.582;2023-03-08T03:12:38;-0.25;60.13
69436;SHT31;56625;54.322;18.582;2023-03-08T03:15:06;-0.23;60.11
69436;SHT31;56625;54.322;18.582;2023-03-08T03:17:35;-0.21;60.32
69436;SHT31;56625;54.322;18.582;2023-03-08T03:20:06;-0.21;60.77
69436;SHT31;56625;54.322;18.582;2023-03-08T03:22:36;-0.22;60.76
69436;SHT31;56625;54.322;18.582;2023-03-08T03:25:03;-0.25;61.01
69436;SHT31;56625;54.322;18.582;2023-03-08T03:27:30;-0.26;61.19
69436;SHT31;56625;54.322;18.582;2023-03-08T03:29:57;-0.28;62.44
69436;SHT31;56625;54.322;18.582;2023-03-08T03:32:24;-0.34;63.73
69436;SHT31;56625;54.322;18.582;2023-03-08T03:34:50;-0.40;64.51
69436;SHT31;56625;54.322;18.582;2023-03-08T03:37:17;-0.44;64.59
69436;SHT31;56625;54.322;18.582;2023-03-08T03:39:43;-0.47;64.28
69436;SHT31;56625;54.322;18.582;2023-03-08T03:42:10;-0.48;64.14
69436;SHT31;56625;54.322;18.582;2023-03-08T03:44:36;-0.46;63.96
69436;SHT31;56625;54.322;18.582;2023-03-08T03:47:03;-0.48;64.51
69436;SHT31;56625;54.322;18.582;2023-03-08T03:49:30;-0.50;65.38
69436;SHT31;56625;54.322;18.582;2023-03-08T03:51:57;-0.52;65.90
69436;SHT31;56625;54.322;18.582;2023-03-08T03:54:23;-0.52;66.17
69436;SHT31;56625;54.322;18.582;2023-03-08T03:56:50;-0.54;65.58
69436;SHT31;56625;54.322;18.582;2023-03-08T03:59:16;-0.51;64.67
69436;SHT31;56625;54.322;18.582;2023-03-08T04:01:43;-0.51;64.69
69436;SHT31;56625;54.322;18.582;2023-03-08T04:04:09;-0.51;64.09
69436;SHT31;56625;54.322;18.582;2023-03-08T04:06:36;-0.48;63.63
69436;SHT31;56625;54.322;18.582;2023-03-08T04:09:05;-0.46;63.11
69436;SHT31;56625;54.322;18.582;2023-03-08T04:11:38;-0.44;62.78
69436;SHT31;56625;54.322;18.582;2023-03-08T04:14:06;-0.40;62.44
69436;SHT31;56625;54.322;18.582;2023-03-08T04:16:34;-0.36;62.48
69436;SHT31;56625;54.322;18.582;2023-03-08T04:19:05;-0.34;62.53
69436;SHT31;56625;54.322;18.582;2023-03-08T04:21:36;-0.32;61.95
69436;SHT31;56625;54.322;18.582;2023-03-08T04:24:03;-0.31;61.32
69436;SHT31;56625;54.322;18.582;2023-03-08T04:26:30;-0.30;61.45
69436;SHT31;56625;54.322;18.582;2023-03-08T04:28:57;-0.31;61.77
69436;SHT31;56625;54.322;18.582;2023-03-08T04:31:25;-0.34;62.60
69436;SHT31;56625;54.322;18.582;2023-03-08T04:33:54;-0.38;62.80
69436;SHT31;56625;54.322;18.582;2023-03-08T04:36:23;-0.39;62.80
69436;SHT31;56625;54.322;18.582;2023-03-08T04:38:50;-0.39;62.44
69436;SHT31;56625;54.322;18.582;2023-03-08T04:41:17;-0.37;61.72
69436;SHT31;56625;54.322;18.582;2023-03-08T04:43:51;-0.36;60.91
69436;SHT31;56625;54.322;18.582;2023-03-08T04:46:21;-0.36;60.61
69436;SHT31;56625;54.322;18.582;2023-03-08T04:48:52;-0.36;60.37
69436;SHT31;56625;54.322;18.582;2023-03-08T04:51:21;-0.35;60.20
69436;SHT31;56625;54.322;18.582;2023-03-08T04:53:50;-0.37;60.21
69436;SHT31;56625;54.322;18.582;2023-03-08T04:56:17;-0.37;59.77
69436;SHT31;56625;54.322;18.582;2023-03-08T04:58:45;-0.36;59.59
69436;SHT31;56625;54.322;18.582;2023-03-08T05:01:14;-0.35;59.39
69436;SHT31;56625;54.322;18.582;2023-03-08T05:03:44;-0.36;59.39
69436;SHT31;56625;54.322;18.582;2023-03-08T05:06:11;-0.34;59.51
69436;SHT31;56625;54.322;18.582;2023-03-08T05:08:39;-0.31;59.78
69436;SHT31;56625;54.322;18.582;2023-03-08T05:11:06;-0.31;60.75
69436;SHT31;56625;54.322;18.582;2023-03-08T05:13:33;-0.35;63.75
69436;SHT31;56625;54.322;18.582;2023-03-08T05:16:04;-0.51;69.71
69436;SHT31;56625;54.322;18.582;2023-03-08T05:18:33;-0.71;72.68
69436;SHT31;56625;54.322;18.582;2023-03-08T05:21:01;-0.85;72.09
69436;SHT31;56625;54.322;18.582;2023-03-08T05:23:37;-0.85;71.10
69436;SHT31;56625;54.322;18.582;2023-03-08T05:26:04;-0.84;70.56
69436;SHT31;56625;54.322;18.582;2023-03-08T05:28:33;-0.84;72.26
69436;SHT31;56625;54.322;18.582;2023-03-08T05:33:44;-0.94;72.99
69436;SHT31;56625;54.322;18.582;2023-03-08T05:36:16;-0.99;74.21
69436;SHT31;56625;54.322;18.582;2023-03-08T05:38:43;-1.06;74.69
69436;SHT31;56625;54.322;18.582;2023-03-08T05:41:11;-1.09;74.38
69436;SHT31;56625;54.322;18.582;2023-03-08T05:43:40;-1.04;74.07
69436;SHT31;56625;54.322;18.582;2023-03-08T05:46:09;-0.98;73.29
69436;SHT31;56625;54.322;18.582;2023-03-08T05:48:39;-0.90;72.37
69436;SHT31;56625;54.322;18.582;2023-03-08T05:51:10;-0.88;73.48
69436;SHT31;56625;54.322;18.582;2023-03-08T05:53:40;-0.94;75.75
69436;SHT31;56625;54.322;18.582;2023-03-08T05:56:11;-1.06;78.77
69436;SHT31;56625;54.322;18.582;2023-03-08T05:58:44;-1.17;80.17
69436;SHT31;56625;54.322;18.582;2023-03-08T06:01:15;-1.25;80.50
69436;SHT31;56625;54.322;18.582;2023-03-08T06:03:48;-1.25;80.48
69436;SHT31;56625;54.322;18.582;2023-03-08T06:06:18;-1.27;79.56
69436;SHT31;56625;54.322;18.582;2023-03-08T06:08:46;-1.26;78.73
69436;SHT31;56625;54.322;18.582;2023-03-08T06:11:14;-1.17;77.99
69436;SHT31;56625;54.322;18.582;2023-03-08T06:13:41;-1.08;76.71
69436;SHT31;56625;54.322;18.582;2023-03-08T06:16:08;-0.98;75.73
69436;SHT31;56625;54.322;18.582;2023-03-08T06:18:36;-0.88;74.86
69436;SHT31;56625;54.322;18.582;2023-03-08T06:21:06;-0.78;73.41
69436;SHT31;56625;54.322;18.582;2023-03-08T06:23:38;-0.66;72.09
69436;SHT31;56625;54.322;18.582;2023-03-08T06:26:05;-0.53;70.80
69436;SHT31;56625;54.322;18.582;2023-03-08T06:28:33;-0.39;69.43
69436;SHT31;56625;54.322;18.582;2023-03-08T06:31:01;-0.28;68.35
69436;SHT31;56625;54.322;18.582;2023-03-08T06:33:29;-0.21;67.38
69436;SHT31;56625;54.322;18.582;2023-03-08T06:36:05;-0.09;66.85
69436;SHT31;56625;54.322;18.582;2023-03-08T06:38:45;0.03;65.68
69436;SHT31;56625;54.322;18.582;2023-03-08T06:41:13;0.07;65.32
69436;SHT31;56625;54.322;18.582;2023-03-08T06:43:42;0.08;66.29
69436;SHT31;56625;54.322;18.582;2023-03-08T06:46:19;0.05;67.21
69436;SHT31;56625;54.322;18.582;2023-03-08T06:48:46;0.07;68.42
69436;SHT31;56625;54.322;18.582;2023-03-08T06:51:14;0.05;69.68
69436;SHT31;56625;54.322;18.582;2023-03-08T06:53:40;0.05;70.54
69436;SHT31;56625;54.322;18.582;2023-03-08T06:56:07;0.09;70.86
69436;SHT31;56625;54.322;18.582;2023-03-08T06:58:37;-0.02;73.12
69436;SHT31;56625;54.322;18.582;2023-03-08T07:01:04;-0.08;73.13
69436;SHT31;56625;54.322;18.582;2023-03-08T07:03:32;-0.03;72.15
69436;SHT31;56625;54.322;18.582;2023-03-08T07:05:59;0.05;71.39
69436;SHT31;56625;54.322;18.582;2023-03-08T07:08:27;0.14;70.78
69436;SHT31;56625;54.322;18.582;2023-03-08T07:10:54;0.24;70.55
69436;SHT31;56625;54.322;18.582;2023-03-08T07:13:20;0.31;69.97
69436;SHT31;56625;54.322;18.582;2023-03-08T07:15:49;0.37;69.38
69436;SHT31;56625;54.322;18.582;2023-03-08T07:18:17;0.43;68.77
69436;SHT31;56625;54.322;18.582;2023-03-08T07:20:44;0.50;68.52
69436;SHT31;56625;54.322;18.582;2023-03-08T07:23:16;0.56;67.85
69436;SHT31;56625;54.322;18.582;2023-03-08T07:25:42;0.63;67.13
69436;SHT31;56625;54.322;18.582;2023-03-08T07:28:09;0.69;66.19
69436;SHT31;56625;54.322;18.582;2023-03-08T07:30:35;0.78;65.76
69436;SHT31;56625;54.322;18.582;2023-03-08T07:33:02;0.81;65.39
69436;SHT31;56625;54.322;18.582;2023-03-08T07:35:28;0.93;64.69
69436;SHT31;56625;54.322;18.582;2023-03-08T07:37:55;0.84;66.20
69436;SHT31;56625;54.322;18.582;2023-03-08T07:40:21;0.33;78.41
69436;SHT31;56625;54.322;18.582;2023-03-08T07:42:48;-0.02;83.10
69436;SHT31;56625;54.322;18.582;2023-03-08T07:45:15;-0.12;83.29
69436;SHT31;56625;54.322;18.582;2023-03-08T07:47:41;-0.20;82.32
69436;SHT31;56625;54.322;18.582;2023-03-08T07:50:08;-0.25;81.45
69436;SHT31;56625;54.322;18.582;2023-03-08T07:52:36;-0.25;81.58
69436;SHT31;56625;54.322;18.582;2023-03-08T07:55:02;-0.24;82.08
69436;SHT31;56625;54.322;18.582;2023-03-08T07:57:29;-0.15;81.80
69436;SHT31;56625;54.322;18.582;2023-03-08T07:59:55;-0.05;79.92
69436;SHT31;56625;54.322;18.582;2023-03-08T08:02:22;0.07;77.66
69436;SHT31;56625;54.322;18.582;2023-03-08T08:04:49;0.22;75.55
69436;SHT31;56625;54.322;18.582;2023-03-08T08:07:16;0.32;73.94
69436;SHT31;56625;54.322;18.582;2023-03-08T08:09:43;0.45;72.80
69436;SHT31;56625;54.322;18.582;2023-03-08T08:12:09;0.66;71.66
69436;SHT31;56625;54.322;18.582;2023-03-08T08:14:36;0.71;70.83
69436;SHT31;56625;54.322;18.582;2023-03-08T08:17:03;0.71;70.88
69436;SHT31;56625;54.322;18.582;2023-03-08T08:19:30;0.79;71.21
69436;SHT31;56625;54.322;18.582;2023-03-08T08:21:57;0.81;70.72
69436;SHT31;56625;54.322;18.582;2023-03-08T08:24:25;0.99;69.97
69436;SHT31;56625;54.322;18.582;2023-03-08T08:26:52;1.17;68.41
69436;SHT31;56625;54.322;18.582;2023-03-08T08:29:19;1.34;67.14
69436;SHT31;56625;54.322;18.582;2023-03-08T08:31:45;1.50;66.47
69436;SHT31;56625;54.322;18.582;2023-03-08T08:34:13;1.69;65.58
69436;SHT31;56625;54.322;18.582;2023-03-08T08:36:39;1.79;63.66
69436;SHT31;56625;54.322;18.582;2023-03-08T08:39:06;1.92;61.27
69436;SHT31;56625;54.322;18.582;2023-03-08T08:41:32;2.00;59.49
69436;SHT31;56625;54.322;18.582;2023-03-08T08:43:59;2.11;59.10
69436;SHT31;56625;54.322;18.582;2023-03-08T08:46:26;2.15;57.74
69436;SHT31;56625;54.322;18.582;2023-03-08T08:48:54;2.22;56.11
69436;SHT31;56625;54.322;18.582;2023-03-08T08:51:21;2.32;54.35
69436;SHT31;56625;54.322;18.582;2023-03-08T08:53:48;2.33;50.70
69436;SHT31;56625;54.322;18.582;2023-03-08T08:56:16;2.35;49.96
69436;SHT31;56625;54.322;18.582;2023-03-08T08:58:54;2.47;50.49
69436;SHT31;56625;54.322;18.582;2023-03-08T09:01:23;2.53;49.07
69436;SHT31;56625;54.322;18.582;2023-03-08T09:03:53;2.48;47.81
69436;SHT31;56625;54.322;18.582;2023-03-08T09:06:21;2.52;48.24
69436;SHT31;56625;54.322;18.582;2023-03-08T09:08:50;2.58;48.43
69436;SHT31;56625;54.322;18.582;2023-03-08T09:11:20;2.58;48.06
69436;SHT31;56625;54.322;18.582;2023-03-08T09:13:48;2.64;47.82
69436;SHT31;56625;54.322;18.582;2023-03-08T09:16:16;2.65;47.89
69436;SHT31;56625;54.322;18.582;2023-03-08T09:18:57;2.61;48.01
69436;SHT31;56625;54.322;18.582;2023-03-08T09:21:27;2.41;45.08
69436;SHT31;56625;54.322;18.582;2023-03-08T09:23:58;2.23;44.59
69436;SHT31;56625;54.322;18.582;2023-03-08T09:26:30;2.18;45.23
69436;SHT31;56625;54.322;18.582;2023-03-08T09:28:58;2.10;44.04
69436;SHT31;56625;54.322;18.582;2023-03-08T09:31:33;2.15;44.22
69436;SHT31;56625;54.322;18.582;2023-03-08T09:34:02;2.32;43.17
69436;SHT31;56625;54.322;18.582;2023-03-08T09:36:34;2.40;41.78
69436;SHT31;56625;54.322;18.582;2023-03-08T09:39:08;2.51;41.55
69436;SHT31;56625;54.322;18.582;2023-03-08T09:56:16;3.07;41.14
69436;SHT31;56625;54.322;18.582;2023-03-08T09:58:57;2.98;40.80
69436;SHT31;56625;54.322;18.582;2023-03-08T10:01:34;2.96;40.94
69436;SHT31;56625;54.322;18.582;2023-03-08T10:07:54;2.89;41.21
69436;SHT31;56625;54.322;18.582;2023-03-08T10:13:36;2.95;41.57
69436;SHT31;56625;54.322;18.582;2023-03-08T10:21:32;2.97;41.60
69436;SHT31;56625;54.322;18.582;2023-03-08T10:24:15;2.83;41.19
69436;SHT31;56625;54.322;18.582;2023-03-08T10:27:23;2.88;40.75
69436;SHT31;56625;54.322;18.582;2023-03-08T10:29:55;2.94;40.91
69436;SHT31;56625;54.322;18.582;2023-03-08T10:32:25;3.07;41.03
69436;SHT31;56625;54.322;18.582;2023-03-08T10:34:59;3.15;40.36
69436;SHT31;56625;54.322;18.582;2023-03-08T10:37:29;3.30;39.15
69436;SHT31;56625;54.322;18.582;2023-03-08T10:40:01;3.29;37.63
69436;SHT31;56625;54.322;18.582;2023-03-08T10:42:46;3.26;38.51
69436;SHT31;56625;54.322;18.582;2023-03-08T10:45:19;3.28;39.36
69436;SHT31;56625;54.322;18.582;2023-03-08T10:48:00;3.28;39.56
69436;SHT31;56625;54.322;18.582;2023-03-08T10:50:31;3.35;39.63
69436;SHT31;56625;54.322;18.582;2023-03-08T10:53:23;3.36;37.78
69436;SHT31;56625;54.322;18.582;2023-03-08T10:55:50;3.35;37.60
69436;SHT31;56625;54.322;18.582;2023-03-08T10:58:25;3.20;38.11
69436;SHT31;56625;54.322;18.582;2023-03-08T11:01:04;3.09;38.91
69436;SHT31;56625;54.322;18.582;2023-03-08T11:04:01;3.12;39.38
69436;SHT31;56625;54.322;18.582;2023-03-08T11:06:28;3.03;40.06
69436;SHT31;56625;54.322;18.582;2023-03-08T11:08:57;3.04;40.10
69436;SHT31;56625;54.322;18.582;2023-03-08T11:11:26;3.08;39.89
69436;SHT31;56625;54.322;18.582;2023-03-08T11:13:53;3.19;39.84
69436;SHT31;56625;54.322;18.582;2023-03-08T11:16:44;3.31;39.98
69436;SHT31;56625;54.322;18.582;2023-03-08T11:19:46;3.47;39.85
69436;SHT31;56625;54.322;18.582;2023-03-08T11:23:02;3.52;39.42
69436;SHT31;56625;54.322;18.582;2023-03-08T11:25:54;3.75;40.21
69436;SHT31;56625;54.322;18.582;2023-03-08T11:34:45;4.19;39.05
69436;SHT31;56625;54.322;18.582;2023-03-08T11:40:13;4.17;37.08
69436;SHT31;56625;54.322;18.582;2023-03-08T11:43:46;4.04;38.68
69436;SHT31;56625;54.322;18.582;2023-03-08T11:56:01;3.74;41.77
69436;SHT31;56625;54.322;18.582;2023-03-08T11:59:32;3.71;41.54
69436;SHT31;56625;54.322;18.582;2023-03-08T12:05:00;3.70;39.60
69436;SHT31;56625;54.322;18.582;2023-03-08T12:10:45;3.69;40.41
69436;SHT31;56625;54.322;18.582;2023-03-08T12:13:31;3.71;41.61
69436;SHT31;56625;54.322;18.582;2023-03-08T12:16:07;3.58;41.49
69436;SHT31;56625;54.322;18.582;2023-03-08T12:18:45;3.58;41.96
69436;SHT31;56625;54.322;18.582;2023-03-08T12:21:26;3.66;41.92
69436;SHT31;56625;54.322;18.582;2023-03-08T12:24:25;3.82;41.80
69436;SHT31;56625;54.322;18.582;2023-03-08T12:27:14;3.87;41.43
69436;SHT31;56625;54.322;18.582;2023-03-08T12:32:50;3.82;41.26
69436;SHT31;56625;54.322;18.582;2023-03-08T12:37:54;3.87;40.01
69436;SHT31;56625;54.322;18.582;2023-03-08T12:40:52;3.91;39.71
69436;SHT31;56625;54.322;18.582;2023-03-08T12:53:42;4.15;38.78
69436;SHT31;56625;54.322;18.582;2023-03-08T13:01:45;4.01;35.28
69436;SHT31;56625;54.322;18.582;2023-03-08T13:04:37;3.88;36.15
69436;SHT31;56625;54.322;18.582;2023-03-08T13:19:57;3.50;38.87
69436;SHT31;56625;54.322;18.582;2023-03-08T13:22:43;3.42;39.21
69436;SHT31;56625;54.322;18.582;2023-03-08T13:28:26;3.48;39.45
69436;SHT31;56625;54.322;18.582;2023-03-08T13:31:19;3.49;39.38
69436;SHT31;56625;54.322;18.582;2023-03-08T13:33:57;3.47;40.23
69436;SHT31;56625;54.322;18.582;2023-03-08T13:36:29;3.44;40.27
69436;SHT31;56625;54.322;18.582;2023-03-08T13:39:02;3.47;40.84
69436;SHT31;56625;54.322;18.582;2023-03-08T13:41:49;3.56;41.06
69436;SHT31;56625;54.322;18.582;2023-03-08T13:44:26;3.59;39.74
69436;SHT31;56625;54.322;18.582;2023-03-08T13:46:54;3.58;39.56
69436;SHT31;56625;54.322;18.582;2023-03-08T13:49:31;3.54;39.93
69436;SHT31;56625;54.322;18.582;2023-03-08T13:52:03;3.48;39.61
69436;SHT31;56625;54.322;18.582;2023-03-08T13:54:43;3.48;38.99
69436;SHT31;56625;54.322;18.582;2023-03-08T13:57:25;3.55;39.39
69436;SHT31;56625;54.322;18.582;2023-03-08T14:02:53;3.67;38.24
69436;SHT31;56625;54.322;18.582;2023-03-08T14:05:24;3.57;38.22
69436;SHT31;56625;54.322;18.582;2023-03-08T14:07:58;3.43;38.82
69436;SHT31;56625;54.322;18.582;2023-03-08T14:10:35;3.38;39.69
69436;SHT31;56625;54.322;18.582;2023-03-08T14:13:17;3.38;40.12
69436;SHT31;56625;54.322;18.582;2023-03-08T14:16:09;3.31;39.86
69436;SHT31;56625;54.322;18.582;2023-03-08T14:18:56;3.24;40.33
69436;SHT31;56625;54.322;18.582;2023-03-08T14:21:28;3.20;40.50
69436;SHT31;56625;54.322;18.582;2023-03-08T14:23:56;3.15;40.66
69436;SHT31;56625;54.322;18.582;2023-03-08T14:26:27;3.11;40.83
69436;SHT31;56625;54.322;18.582;2023-03-08T14:29:19;3.08;41.41
69436;SHT31;56625;54.322;18.582;2023-03-08T14:34:27;2.97;41.97
69436;SHT31;56625;54.322;18.582;2023-03-08T14:37:03;2.92;42.01
69436;SHT31;56625;54.322;18.582;2023-03-08T14:39:43;2.87;42.38
69436;SHT31;56625;54.322;18.582;2023-03-08T14:45:15;2.77;42.92
69436;SHT31;56625;54.322;18.582;2023-03-08T14:51:00;2.70;43.00
69436;SHT31;56625;54.322;18.582;2023-03-08T14:53:32;2.72;43.53
69436;SHT31;56625;54.322;18.582;2023-03-08T14:56:12;2.77;43.86
69436;SHT31;56625;54.322;18.582;2023-03-08T14:58:50;2.81;43.95
69436;SHT31;56625;54.322;18.582;2023-03-08T15:01:22;2.84;44.02
69436;SHT31;56625;54.322;18.582;2023-03-08T15:04:01;2.83;43.75
69436;SHT31;56625;54.322;18.582;2023-03-08T15:06:30;2.78;43.81
69436;SHT31;56625;54.322;18.582;2023-03-08T15:09:00;2.72;43.60
69436;SHT31;56625;54.322;18.582;2023-03-08T15:11:30;2.66;42.80
69436;SHT31;56625;54.322;18.582;2023-03-08T15:13:57;2.60;41.93
69436;SHT31;56625;54.322;18.582;2023-03-08T15:16:24;2.53;41.70
69436;SHT31;56625;54.322;18.582;2023-03-08T15:18:52;2.49;42.06
69436;SHT31;56625;54.322;18.582;2023-03-08T15:21:22;2.45;42.08
69436;SHT31;56625;54.322;18.582;2023-03-08T15:23:53;2.43;42.39
69436;SHT31;56625;54.322;18.582;2023-03-08T15:26:22;2.43;42.01
69436;SHT31;56625;54.322;18.582;2023-03-08T15:28:53;2.42;41.98
69436;SHT31;56625;54.322;18.582;2023-03-08T15:31:20;2.41;41.66
69436;SHT31;56625;54.322;18.582;2023-03-08T15:33:47;2.40;41.81
69436;SHT31;56625;54.322;18.582;2023-03-08T15:36:14;2.37;41.81
69436;SHT31;56625;54.322;18.582;2023-03-08T15:38:43;2.37;42.44
69436;SHT31;56625;54.322;18.582;2023-03-08T15:41:11;2.36;42.66
69436;SHT31;56625;54.322;18.582;2023-03-08T15:43:42;2.34;42.96
69436;SHT31;56625;54.322;18.582;2023-03-08T15:46:10;2.32;42.85
69436;SHT31;56625;54.322;18.582;2023-03-08T15:48:39;2.30;43.38
69436;SHT31;56625;54.322;18.582;2023-03-08T15:51:11;2.29;43.52
69436;SHT31;56625;54.322;18.582;2023-03-08T15:53:44;2.28;43.71
69436;SHT31;56625;54.322;18.582;2023-03-08T15:56:11;2.23;44.12
69436;SHT31;56625;54.322;18.582;2023-03-08T15:58:38;2.21;44.11
69436;SHT31;56625;54.322;18.582;2023-03-08T16:01:05;2.16;44.31
69436;SHT31;56625;54.322;18.582;2023-03-08T16:03:32;2.12;44.18
69436;SHT31;56625;54.322;18.582;2023-03-08T16:06:00;2.08;44.72
69436;SHT31;56625;54.322;18.582;2023-03-08T16:08:28;2.03;45.09
69436;SHT31;56625;54.322;18.582;2023-03-08T16:10:55;1.98;45.62
69436;SHT31;56625;54.322;18.582;2023-03-08T16:13:28;1.94;45.77
69436;SHT31;56625;54.322;18.582;2023-03-08T16:15:59;1.89;45.88
69436;SHT31;56625;54.322;18.582;2023-03-08T16:18:31;1.84;46.10
69436;SHT31;56625;54.322;18.582;2023-03-08T16:21:04;1.80;46.53
69436;SHT31;56625;54.322;18.582;2023-03-08T16:23:37;1.74;46.64
69436;SHT31;56625;54.322;18.582;2023-03-08T16:26:08;1.67;46.95
69436;SHT31;56625;54.322;18.582;2023-03-08T16:28:43;1.63;47.35
69436;SHT31;56625;54.322;18.582;2023-03-08T16:31:12;1.58;47.74
69436;SHT31;56625;54.322;18.582;2023-03-08T16:33:40;1.54;48.08
69436;SHT31;56625;54.322;18.582;2023-03-08T16:36:07;1.50;48.56
69436;SHT31;56625;54.322;18.582;2023-03-08T16:38:35;1.48;49.03
69436;SHT31;56625;54.322;18.582;2023-03-08T16:41:05;1.47;49.41
69436;SHT31;56625;54.322;18.582;2023-03-08T16:43:41;1.45;49.91
69436;SHT31;56625;54.322;18.582;2023-03-08T16:46:18;1.42;50.71
69436;SHT31;56625;54.322;18.582;2023-03-08T16:48:48;1.39;52.41
69436;SHT31;56625;54.322;18.582;2023-03-08T16:51:19;1.34;54.72
69436;SHT31;56625;54.322;18.582;2023-03-08T16:53:49;1.25;59.16
69436;SHT31;56625;54.322;18.582;2023-03-08T16:56:26;1.08;64.96
69436;SHT31;56625;54.322;18.582;2023-03-08T16:58:59;0.90;67.55
69436;SHT31;56625;54.322;18.582;2023-03-08T17:01:27;0.75;68.93
69436;SHT31;56625;54.322;18.582;2023-03-08T17:03:58;0.64;69.22
69436;SHT31;56625;54.322;18.582;2023-03-08T17:06:26;0.56;69.62
69436;SHT31;56625;54.322;18.582;2023-03-08T17:08:56;0.50;69.72
69436;SHT31;56625;54.322;18.582;2023-03-08T17:11:27;0.45;70.15
69436;SHT31;56625;54.322;18.582;2023-03-08T17:13:59;0.40;71.30
69436;SHT31;56625;54.322;18.582;2023-03-08T17:16:32;0.36;71.81
69436;SHT31;56625;54.322;18.582;2023-03-08T17:19:01;0.34;71.89
69436;SHT31;56625;54.322;18.582;2023-03-08T17:21:30;0.32;72.18
69436;SHT31;56625;54.322;18.582;2023-03-08T17:24:04;0.30;72.69
69436;SHT31;56625;54.322;18.582;2023-03-08T17:26:39;0.27;73.03
69436;SHT31;56625;54.322;18.582;2023-03-08T17:29:10;0.23;73.56
69436;SHT31;56625;54.322;18.582;2023-03-08T17:31:39;0.20;73.83
69436;SHT31;56625;54.322;18.582;2023-03-08T17:34:06;0.17;73.85
69436;SHT31;56625;54.322;18.582;2023-03-08T17:36:33;0.13;74.18
69436;SHT31;56625;54.322;18.582;2023-03-08T17:39:00;0.09;74.56